Wetterdaten: Woche 23.10.23 - 29.10.23 (KW43)
Datum Zeit Temp. I. Temp. A. Feuchte I. Feuchte A. Luftdruck Regen Wind Richtung Sonnenschein Solar Taupunkt Windchill Windböen
23.10.2023 00:00 21,1 °C 11,9 °C 62 % 89 % 1013,0 hPa 0,0 l/m² 3,7 km/h (1 Bft) S-SW 0,00 h 0 W/m² 10,1 °C 11,9 °C 4,7 km/h (1 Bft)
23.10.2023 01:00 21,0 °C 11,9 °C 62 % 89 % 1013,2 hPa 0,0 l/m² 0,5 km/h (0 Bft) N 0,00 h 0 W/m² 10,1 °C 11,9 °C 1,1 km/h (1 Bft)
23.10.2023 02:00 21,0 °C 11,7 °C 62 % 89 % 1013,2 hPa 0,0 l/m² 2,2 km/h (1 Bft) W-SW 0,00 h 0 W/m² 10,0 °C 11,7 °C 3,6 km/h (1 Bft)
23.10.2023 03:00 20,9 °C 10,6 °C 62 % 91 % 1013,5 hPa 0,0 l/m² 1,1 km/h (1 Bft) N 0,00 h 0 W/m² 9,2 °C 10,6 °C 1,4 km/h (1 Bft)
23.10.2023 04:00 20,8 °C 10,0 °C 62 % 93 % 1013,9 hPa 0,0 l/m² 0,0 km/h (0 Bft) N 0,00 h 0 W/m² 8,9 °C 10,0 °C 0,1 km/h (0 Bft)
23.10.2023 05:00 21,0 °C 9,8 °C 62 % 94 % 1014,3 hPa 0,0 l/m² 0,1 km/h (0 Bft) SW 0,00 h 0 W/m² 8,9 °C 9,8 °C 0,3 km/h (0 Bft)
23.10.2023 06:00 21,1 °C 9,7 °C 62 % 95 % 1014,5 hPa 0,0 l/m² 0,0 km/h (0 Bft) SW 0,00 h 0 W/m² 8,9 °C 9,7 °C 0,1 km/h (0 Bft)
23.10.2023 07:00 21,1 °C 9,6 °C 61 % 95 % 1014,7 hPa 0,0 l/m² 0,2 km/h (0 Bft) SW 0,00 h 5 W/m² 8,8 °C 9,6 °C 0,4 km/h (0 Bft)
23.10.2023 08:00 21,2 °C 10,0 °C 61 % 95 % 1015,1 hPa 0,0 l/m² 0,1 km/h (0 Bft) N-NW 0,00 h 21 W/m² 9,3 °C 10,0 °C 0,2 km/h (0 Bft)
23.10.2023 09:00 21,3 °C 10,8 °C 60 % 95 % 1015,3 hPa 0,0 l/m² 0,0 km/h (0 Bft) N-NW 0,83 h 79 W/m² 10,0 °C 10,8 °C 0,0 km/h (0 Bft)
23.10.2023 10:00 21,7 °C 12,7 °C 60 % 90 % 1015,5 hPa 0,0 l/m² 0,8 km/h (0 Bft) N 1,00 h 276 W/m² 11,1 °C 12,7 °C 1,7 km/h (1 Bft)
23.10.2023 11:00 22,1 °C 13,8 °C 58 % 87 % 1015,5 hPa 0,0 l/m² 2,2 km/h (1 Bft) S-SO 1,00 h 341 W/m² 11,7 °C 13,8 °C 3,9 km/h (1 Bft)
23.10.2023 12:00 22,4 °C 15,1 °C 58 % 83 % 1015,1 hPa 0,0 l/m² 2,2 km/h (1 Bft) S 1,00 h 436 W/m² 12,2 °C 15,1 °C 4,2 km/h (1 Bft)
23.10.2023 13:00 22,3 °C 16,1 °C 58 % 78 % 1014,5 hPa 0,0 l/m² 3,9 km/h (1 Bft) SW 1,00 h 442 W/m² 12,2 °C 16,0 °C 5,9 km/h (2 Bft)
23.10.2023 14:00 22,1 °C 15,9 °C 56 % 78 % 1014,2 hPa 0,0 l/m² 4,5 km/h (1 Bft) SO 1,00 h 374 W/m² 12,1 °C 15,7 °C 6,8 km/h (2 Bft)
23.10.2023 15:00 21,9 °C 15,9 °C 54 % 77 % 1013,6 hPa 0,0 l/m² 2,9 km/h (1 Bft) O 1,00 h 248 W/m² 12,0 °C 15,9 °C 4,5 km/h (1 Bft)
23.10.2023 16:00 21,8 °C 15,1 °C 56 % 79 % 1013,1 hPa 0,0 l/m² 2,1 km/h (1 Bft) SO 1,00 h 100 W/m² 11,4 °C 15,1 °C 3,5 km/h (1 Bft)
23.10.2023 17:00 21,7 °C 13,7 °C 56 % 83 % 1012,6 hPa 0,0 l/m² 2,5 km/h (1 Bft) SO 0,07 h 28 W/m² 10,9 °C 13,7 °C 3,6 km/h (1 Bft)
23.10.2023 18:00 21,6 °C 11,8 °C 56 % 89 % 1012,2 hPa 0,0 l/m² 0,7 km/h (0 Bft) SO 0,00 h 0 W/m² 9,9 °C 11,8 °C 1,4 km/h (1 Bft)
23.10.2023 19:00 21,5 °C 10,4 °C 57 % 92 % 1011,8 hPa 0,0 l/m² 2,8 km/h (1 Bft) SO 0,00 h 0 W/m² 9,1 °C 10,4 °C 4,0 km/h (1 Bft)
23.10.2023 20:00 21,4 °C 10,1 °C 57 % 93 % 1011,5 hPa 0,0 l/m² 4,1 km/h (1 Bft) O-SO 0,00 h 0 W/m² 9,1 °C 10,1 °C 5,2 km/h (1 Bft)
23.10.2023 21:00 21,6 °C 10,5 °C 59 % 93 % 1011,2 hPa 0,0 l/m² 3,1 km/h (1 Bft) O 0,00 h 0 W/m² 9,4 °C 10,5 °C 4,7 km/h (1 Bft)
23.10.2023 22:00 21,6 °C 11,1 °C 59 % 93 % 1010,8 hPa 0,0 l/m² 5,5 km/h (2 Bft) O-NO 0,00 h 0 W/m² 10,0 °C 10,9 °C 8,7 km/h (2 Bft)
23.10.2023 23:00 21,6 °C 11,3 °C 59 % 92 % 1010,4 hPa 0,0 l/m² 6,2 km/h (2 Bft) O-NO 0,00 h 0 W/m² 10,1 °C 11,0 °C 9,5 km/h (2 Bft)
24.10.2023 00:00 21,5 °C 11,2 °C 60 % 92 % 1009,9 hPa 0,2 l/m² 4,1 km/h (1 Bft) O 0,00 h 0 W/m² 9,9 °C 11,1 °C 6,3 km/h (2 Bft)
24.10.2023 01:00 21,4 °C 11,0 °C 60 % 93 % 1009,2 hPa 0,4 l/m² 4,2 km/h (1 Bft) O 0,00 h 0 W/m² 9,9 °C 11,0 °C 6,0 km/h (2 Bft)
24.10.2023 02:00 21,4 °C 10,9 °C 60 % 94 % 1008,6 hPa 0,0 l/m² 2,8 km/h (1 Bft) O-NO 0,00 h 0 W/m² 10,0 °C 10,9 °C 4,9 km/h (1 Bft)
24.10.2023 03:00 21,4 °C 10,9 °C 60 % 94 % 1008,0 hPa 0,2 l/m² 2,1 km/h (1 Bft) O-NO 0,00 h 0 W/m² 10,0 °C 10,9 °C 4,2 km/h (1 Bft)
24.10.2023 04:00 21,4 °C 10,7 °C 60 % 94 % 1007,8 hPa 0,0 l/m² 1,4 km/h (1 Bft) O-NO 0,00 h 0 W/m² 9,9 °C 10,7 °C 2,8 km/h (1 Bft)
24.10.2023 05:00 21,5 °C 10,1 °C 60 % 95 % 1007,0 hPa 0,0 l/m² 2,6 km/h (1 Bft) O-NO 0,00 h 0 W/m² 9,3 °C 10,1 °C 4,9 km/h (1 Bft)
24.10.2023 06:00 21,4 °C 10,4 °C 60 % 95 % 1006,6 hPa 0,0 l/m² 4,8 km/h (1 Bft) O 0,00 h 0 W/m² 9,7 °C 9,9 °C 8,0 km/h (2 Bft)
24.10.2023 07:00 21,4 °C 10,7 °C 59 % 95 % 1006,2 hPa 0,0 l/m² 0,9 km/h (0 Bft) O 0,00 h 0 W/m² 10,0 °C 10,7 °C 2,3 km/h (1 Bft)
24.10.2023 08:00 21,3 °C 10,8 °C 59 % 95 % 1005,9 hPa 0,0 l/m² 0,2 km/h (0 Bft) O 0,00 h 13 W/m² 10,0 °C 10,8 °C 1,0 km/h (0 Bft)
24.10.2023 09:00 21,3 °C 11,4 °C 59 % 95 % 1005,4 hPa 0,0 l/m² 0,0 km/h (0 Bft) O 0,23 h 44 W/m² 10,6 °C 11,4 °C 0,0 km/h (0 Bft)
24.10.2023 10:00 21,3 °C 12,3 °C 59 % 94 % 1005,2 hPa 0,0 l/m² 0,0 km/h (0 Bft) O 1,02 h 91 W/m² 11,3 °C 12,3 °C 0,0 km/h (0 Bft)
24.10.2023 11:00 21,4 °C 13,2 °C 59 % 92 % 1005,2 hPa 0,2 l/m² 0,9 km/h (0 Bft) O 1,00 h 88 W/m² 11,9 °C 13,2 °C 1,9 km/h (1 Bft)
24.10.2023 12:00 21,4 °C 13,3 °C 59 % 92 % 1005,2 hPa 0,0 l/m² 1,0 km/h (0 Bft) O 0,40 h 52 W/m² 12,0 °C 13,3 °C 1,8 km/h (1 Bft)
24.10.2023 13:00 21,4 °C 13,7 °C 59 % 93 % 1005,0 hPa 0,2 l/m² 0,1 km/h (0 Bft) O 1,00 h 81 W/m² 12,6 °C 13,7 °C 0,1 km/h (0 Bft)
24.10.2023 14:00 21,3 °C 14,1 °C 59 % 93 % 1004,5 hPa 0,0 l/m² 0,2 km/h (0 Bft) O 0,70 h 58 W/m² 12,9 °C 14,1 °C 0,4 km/h (0 Bft)
24.10.2023 15:00 21,3 °C 13,9 °C 59 % 94 % 1004,4 hPa 0,8 l/m² 0,0 km/h (0 Bft) O 0,00 h 27 W/m² 12,9 °C 13,9 °C 0,0 km/h (0 Bft)
24.10.2023 16:00 21,3 °C 13,4 °C 60 % 95 % 1003,8 hPa 1,4 l/m² 0,2 km/h (0 Bft) O 0,00 h 13 W/m² 12,6 °C 13,4 °C 0,3 km/h (0 Bft)
24.10.2023 17:00 21,3 °C 12,9 °C 60 % 95 % 1003,6 hPa 2,6 l/m² 0,0 km/h (0 Bft) O 0,00 h 5 W/m² 12,1 °C 12,9 °C 0,0 km/h (0 Bft)
24.10.2023 18:00 21,4 °C 12,4 °C 60 % 96 % 1003,3 hPa 0,4 l/m² 0,0 km/h (0 Bft) O 0,00 h 0 W/m² 11,8 °C 12,4 °C 0,1 km/h (0 Bft)
24.10.2023 19:00 21,4 °C 12,3 °C 62 % 96 % 1003,2 hPa 0,4 l/m² 0,0 km/h (0 Bft) O 0,00 h 0 W/m² 11,7 °C 12,3 °C 0,1 km/h (0 Bft)
24.10.2023 20:00 21,6 °C 11,9 °C 63 % 96 % 1003,0 hPa 0,0 l/m² 0,2 km/h (0 Bft) O 0,00 h 0 W/m² 11,3 °C 11,9 °C 0,6 km/h (0 Bft)
24.10.2023 21:00 21,7 °C 12,0 °C 63 % 96 % 1003,0 hPa 0,0 l/m² 0,1 km/h (0 Bft) O 0,00 h 0 W/m² 11,4 °C 12,0 °C 0,3 km/h (0 Bft)
24.10.2023 22:00 21,5 °C 11,9 °C 63 % 96 % 1002,9 hPa 0,0 l/m² 0,6 km/h (0 Bft) O 0,00 h 0 W/m² 11,3 °C 11,9 °C 1,4 km/h (1 Bft)
24.10.2023 23:00 21,4 °C 11,7 °C 64 % 96 % 1003,0 hPa 0,0 l/m² 0,0 km/h (0 Bft) O 0,00 h 0 W/m² 11,0 °C 11,7 °C 0,3 km/h (0 Bft)
25.10.2023 00:00 21,3 °C 10,8 °C 64 % 96 % 1002,9 hPa 0,0 l/m² 0,0 km/h (0 Bft) O 0,00 h 0 W/m² 10,2 °C 10,8 °C 0,0 km/h (0 Bft)
25.10.2023 01:00 21,3 °C 9,7 °C 64 % 96 % 1003,3 hPa 0,0 l/m² 0,9 km/h (0 Bft) O 0,00 h 0 W/m² 9,1 °C 9,7 °C 1,8 km/h (1 Bft)
25.10.2023 02:00 21,3 °C 8,7 °C 64 % 96 % 1003,4 hPa 0,2 l/m² 0,1 km/h (0 Bft) S-SW 0,00 h 0 W/m² 8,1 °C 8,7 °C 0,3 km/h (0 Bft)
25.10.2023 03:00 21,3 °C 8,0 °C 64 % 96 % 1003,7 hPa 0,0 l/m² 1,5 km/h (1 Bft) S-SW 0,00 h 0 W/m² 7,4 °C 8,0 °C 2,7 km/h (1 Bft)
25.10.2023 04:00 21,3 °C 7,6 °C 64 % 96 % 1003,7 hPa 0,0 l/m² 0,6 km/h (0 Bft) S-SW 0,00 h 0 W/m² 7,0 °C 7,6 °C 1,1 km/h (1 Bft)
25.10.2023 05:00 21,3 °C 7,4 °C 64 % 96 % 1003,8 hPa 0,0 l/m² 0,6 km/h (0 Bft) S-SW 0,00 h 0 W/m² 6,8 °C 7,4 °C 1,2 km/h (1 Bft)
25.10.2023 06:00 21,3 °C 7,9 °C 64 % 96 % 1003,5 hPa 0,0 l/m² 1,3 km/h (1 Bft) S-SW 0,00 h 0 W/m² 7,4 °C 7,9 °C 2,5 km/h (1 Bft)
25.10.2023 07:00 21,3 °C 7,6 °C 62 % 96 % 1003,5 hPa 0,0 l/m² 0,5 km/h (0 Bft) S 0,00 h 5 W/m² 7,0 °C 7,6 °C 0,8 km/h (0 Bft)
25.10.2023 08:00 21,3 °C 7,7 °C 62 % 97 % 1003,5 hPa 0,0 l/m² 0,5 km/h (0 Bft) S 0,18 h 29 W/m² 7,2 °C 7,7 °C 1,1 km/h (1 Bft)
25.10.2023 09:00 21,5 °C 8,7 °C 62 % 97 % 1003,5 hPa 0,0 l/m² 0,9 km/h (0 Bft) S 0,92 h 140 W/m² 8,2 °C 8,7 °C 2,2 km/h (1 Bft)
25.10.2023 10:00 21,7 °C 10,9 °C 62 % 94 % 1003,3 hPa 0,0 l/m² 2,2 km/h (1 Bft) S-SW 1,00 h 330 W/m² 10,0 °C 10,8 °C 3,8 km/h (1 Bft)
25.10.2023 11:00 21,8 °C 12,4 °C 61 % 89 % 1003,1 hPa 0,0 l/m² 5,9 km/h (2 Bft) S-SW 1,00 h 343 W/m² 10,6 °C 11,9 °C 7,9 km/h (2 Bft)
25.10.2023 12:00 21,9 °C 13,2 °C 61 % 86 % 1002,6 hPa 0,0 l/m² 9,6 km/h (2 Bft) S-SO 1,00 h 393 W/m² 10,9 °C 11,5 °C 13,2 km/h (3 Bft)
25.10.2023 13:00 22,0 °C 13,7 °C 60 % 83 % 1001,7 hPa 0,0 l/m² 10,0 km/h (2 Bft) SO 1,00 h 364 W/m² 10,9 °C 11,7 °C 14,1 km/h (3 Bft)
25.10.2023 14:00 22,0 °C 14,1 °C 60 % 81 % 1000,7 hPa 0,0 l/m² 12,8 km/h (3 Bft) S-SO 1,00 h 473 W/m² 11,0 °C 11,0 °C 17,1 km/h (3 Bft)
25.10.2023 15:00 21,9 °C 13,8 °C 60 % 79 % 999,8 hPa 0,0 l/m² 10,3 km/h (2 Bft) O-SO 1,00 h 262 W/m² 10,3 °C 11,7 °C 14,1 km/h (3 Bft)
25.10.2023 16:00 21,7 °C 12,9 °C 58 % 81 % 998,8 hPa 0,0 l/m² 8,4 km/h (2 Bft) O-SO 0,25 h 50 W/m² 9,6 °C 11,6 °C 12,0 km/h (2 Bft)
25.10.2023 17:00 21,6 °C 12,1 °C 58 % 85 % 998,0 hPa 0,0 l/m² 7,4 km/h (2 Bft) O 0,00 h 22 W/m² 9,6 °C 11,4 °C 10,4 km/h (2 Bft)
25.10.2023 18:00 21,6 °C 11,8 °C 59 % 86 % 997,4 hPa 0,2 l/m² 9,5 km/h (2 Bft) O 0,00 h 0 W/m² 9,5 °C 9,9 °C 12,8 km/h (3 Bft)
25.10.2023 19:00 21,7 °C 11,2 °C 60 % 91 % 996,9 hPa 0,6 l/m² 6,5 km/h (2 Bft) O-NO 0,00 h 0 W/m² 9,7 °C 10,8 °C 9,4 km/h (2 Bft)
25.10.2023 20:00 21,7 °C 10,9 °C 60 % 93 % 996,0 hPa 0,2 l/m² 9,4 km/h (2 Bft) O 0,00 h 0 W/m² 9,8 °C 8,9 °C 13,2 km/h (3 Bft)
25.10.2023 21:00 21,7 °C 10,7 °C 60 % 93 % 994,9 hPa 0,2 l/m² 11,5 km/h (2 Bft) O-NO 0,00 h 0 W/m² 9,7 °C 7,7 °C 17,0 km/h (3 Bft)
25.10.2023 22:00 21,6 °C 10,8 °C 60 % 94 % 994,0 hPa 0,4 l/m² 11,3 km/h (2 Bft) O-NO 0,00 h 0 W/m² 9,9 °C 7,9 °C 15,9 km/h (3 Bft)
25.10.2023 23:00 21,5 °C 10,8 °C 60 % 94 % 993,3 hPa 0,6 l/m² 10,0 km/h (2 Bft) O-NO 0,00 h 0 W/m² 10,0 °C 8,6 °C 14,7 km/h (3 Bft)
26.10.2023 00:00 21,4 °C 10,8 °C 60 % 95 % 992,8 hPa 0,4 l/m² 5,7 km/h (2 Bft) O-NO 0,00 h 0 W/m² 10,1 °C 9,7 °C 8,6 km/h (2 Bft)
26.10.2023 01:00 21,5 °C 10,8 °C 60 % 95 % 992,6 hPa 0,8 l/m² 0,1 km/h (0 Bft) O-NO 0,00 h 0 W/m² 10,0 °C 10,8 °C 0,6 km/h (0 Bft)
26.10.2023 02:00 21,5 °C 10,8 °C 60 % 96 % 992,5 hPa 0,4 l/m² 0,0 km/h (0 Bft) O-NO 0,00 h 0 W/m² 10,1 °C 10,8 °C 0,0 km/h (0 Bft)
26.10.2023 03:00 21,5 °C 10,9 °C 60 % 96 % 992,4 hPa 0,0 l/m² 0,0 km/h (0 Bft) O-NO 0,00 h 0 W/m² 10,3 °C 10,9 °C 0,0 km/h (0 Bft)
26.10.2023 04:00 21,4 °C 11,1 °C 60 % 96 % 992,4 hPa 0,0 l/m² 0,5 km/h (0 Bft) S-SO 0,00 h 0 W/m² 10,4 °C 11,1 °C 1,5 km/h (1 Bft)
26.10.2023 05:00 21,4 °C 11,6 °C 60 % 96 % 992,6 hPa 1,0 l/m² 11,8 km/h (2 Bft) SW 0,00 h 0 W/m² 11,0 °C 8,5 °C 16,0 km/h (3 Bft)
26.10.2023 06:00 21,4 °C 11,4 °C 61 % 95 % 992,8 hPa 0,0 l/m² 16,5 km/h (3 Bft) SW 0,00 h 0 W/m² 10,7 °C 6,4 °C 22,5 km/h (4 Bft)
26.10.2023 07:00 21,3 °C 11,3 °C 60 % 94 % 993,2 hPa 0,0 l/m² 14,2 km/h (3 Bft) SW 0,00 h 0 W/m² 10,4 °C 7,1 °C 19,4 km/h (3 Bft)
26.10.2023 08:00 21,3 °C 11,2 °C 60 % 94 % 993,7 hPa 0,0 l/m² 9,1 km/h (2 Bft) SW 0,00 h 17 W/m² 10,2 °C 9,5 °C 12,9 km/h (3 Bft)
26.10.2023 09:00 21,3 °C 11,5 °C 59 % 92 % 994,1 hPa 0,0 l/m² 9,4 km/h (2 Bft) SW 0,90 h 90 W/m² 10,3 °C 9,6 °C 13,6 km/h (3 Bft)
26.10.2023 10:00 21,3 °C 12,2 °C 58 % 91 % 994,7 hPa 0,0 l/m² 12,6 km/h (3 Bft) SW 1,00 h 172 W/m² 10,7 °C 8,8 °C 17,6 km/h (3 Bft)
26.10.2023 11:00 21,4 °C 12,5 °C 59 % 88 % 995,0 hPa 0,0 l/m² 12,5 km/h (2 Bft) SW 1,00 h 173 W/m² 10,5 °C 9,2 °C 17,0 km/h (3 Bft)
26.10.2023 12:00 21,3 °C 11,7 °C 59 % 88 % 995,2 hPa 0,0 l/m² 10,9 km/h (2 Bft) SW 1,00 h 99 W/m² 9,8 °C 9,1 °C 14,8 km/h (3 Bft)
26.10.2023 13:00 21,4 °C 12,0 °C 60 % 87 % 995,4 hPa 0,0 l/m² 12,7 km/h (3 Bft) SW 1,00 h 140 W/m² 10,0 °C 8,6 °C 17,3 km/h (3 Bft)
26.10.2023 14:00 21,3 °C 12,0 °C 60 % 87 % 995,6 hPa 0,0 l/m² 13,3 km/h (3 Bft) SW 0,95 h 100 W/m² 9,9 °C 8,4 °C 18,0 km/h (3 Bft)
26.10.2023 15:00 21,4 °C 11,6 °C 61 % 91 % 995,7 hPa 0,0 l/m² 7,8 km/h (2 Bft) SW 1,00 h 93 W/m² 10,2 °C 10,6 °C 10,8 km/h (2 Bft)
26.10.2023 16:00 21,4 °C 11,7 °C 60 % 87 % 995,6 hPa 0,0 l/m² 9,6 km/h (2 Bft) SW 0,20 h 40 W/m² 9,7 °C 9,8 °C 13,0 km/h (3 Bft)
26.10.2023 17:00 21,4 °C 11,3 °C 60 % 87 % 995,4 hPa 0,0 l/m² 5,3 km/h (1 Bft) SW 0,00 h 13 W/m² 9,3 °C 10,6 °C 7,5 km/h (2 Bft)
26.10.2023 18:00 21,3 °C 10,9 °C 61 % 90 % 995,7 hPa 0,0 l/m² 0,2 km/h (0 Bft) S-SO 0,00 h 0 W/m² 9,3 °C 10,9 °C 0,6 km/h (0 Bft)
26.10.2023 19:00 21,3 °C 10,7 °C 61 % 91 % 995,6 hPa 0,0 l/m² 0,0 km/h (0 Bft) S-SO 0,00 h 0 W/m² 9,3 °C 10,7 °C 0,0 km/h (0 Bft)
26.10.2023 20:00 21,3 °C 10,3 °C 62 % 93 % 995,5 hPa 0,0 l/m² 0,0 km/h (0 Bft) S-SO 0,00 h 0 W/m² 9,1 °C 10,3 °C 0,0 km/h (0 Bft)
26.10.2023 21:00 21,5 °C 9,6 °C 62 % 91 % 995,7 hPa 0,0 l/m² 0,0 km/h (0 Bft) SW 0,00 h 0 W/m² 8,2 °C 9,6 °C 0,0 km/h (0 Bft)
26.10.2023 22:00 21,4 °C 7,6 °C 62 % 93 % 995,6 hPa 0,0 l/m² 0,0 km/h (0 Bft) S-SW 0,00 h 0 W/m² 6,5 °C 7,6 °C 0,0 km/h (0 Bft)
26.10.2023 23:00 21,2 °C 6,5 °C 62 % 94 % 995,4 hPa 0,0 l/m² 0,0 km/h (0 Bft) S-SW 0,00 h 0 W/m² 5,6 °C 6,5 °C 0,0 km/h (0 Bft)
27.10.2023 00:00 21,2 °C 5,4 °C 62 % 95 % 995,1 hPa 0,0 l/m² 0,0 km/h (0 Bft) O 0,00 h 0 W/m² 4,7 °C 5,4 °C 0,0 km/h (0 Bft)
27.10.2023 01:00 21,2 °C 4,9 °C 62 % 95 % 994,5 hPa 0,0 l/m² 0,0 km/h (0 Bft) O 0,00 h 0 W/m² 4,2 °C 4,9 °C 0,0 km/h (0 Bft)
27.10.2023 02:00 21,2 °C 4,8 °C 61 % 95 % 994,0 hPa 0,0 l/m² 0,0 km/h (0 Bft) O 0,00 h 0 W/m² 4,0 °C 4,8 °C 0,0 km/h (0 Bft)
27.10.2023 03:00 21,2 °C 4,5 °C 61 % 96 % 993,7 hPa 0,2 l/m² 0,0 km/h (0 Bft) O 0,00 h 0 W/m² 3,8 °C 4,5 °C 0,0 km/h (0 Bft)
27.10.2023 04:00 21,2 °C 5,2 °C 61 % 96 % 993,6 hPa 0,0 l/m² 0,0 km/h (0 Bft) O-SO 0,00 h 0 W/m² 4,7 °C 5,2 °C 0,0 km/h (0 Bft)
27.10.2023 05:00 21,2 °C 5,8 °C 61 % 96 % 993,2 hPa 0,0 l/m² 0,0 km/h (0 Bft) O-SO 0,00 h 0 W/m² 5,2 °C 5,8 °C 0,0 km/h (0 Bft)
27.10.2023 06:00 21,3 °C 6,3 °C 61 % 96 % 992,9 hPa 0,0 l/m² 0,0 km/h (0 Bft) O-SO 0,00 h 0 W/m² 5,7 °C 6,3 °C 0,0 km/h (0 Bft)
27.10.2023 07:00 21,2 °C 6,7 °C 61 % 96 % 993,1 hPa 0,0 l/m² 0,9 km/h (0 Bft) SW 0,00 h 0 W/m² 6,1 °C 6,7 °C 1,5 km/h (1 Bft)
27.10.2023 08:00 21,3 °C 7,0 °C 60 % 96 % 993,6 hPa 0,8 l/m² 0,9 km/h (0 Bft) W-SW 0,00 h 9 W/m² 6,4 °C 7,0 °C 1,8 km/h (1 Bft)
27.10.2023 09:00 21,3 °C 7,5 °C 60 % 96 % 993,5 hPa 0,0 l/m² 0,0 km/h (0 Bft) W-SW 0,00 h 24 W/m² 6,9 °C 7,5 °C 0,0 km/h (0 Bft)
27.10.2023 10:00 21,3 °C 8,3 °C 61 % 96 % 993,6 hPa 0,0 l/m² 2,1 km/h (1 Bft) W-SW 0,92 h 99 W/m² 7,7 °C 8,3 °C 3,6 km/h (1 Bft)
27.10.2023 11:00 21,3 °C 9,1 °C 60 % 96 % 993,8 hPa 0,0 l/m² 0,4 km/h (0 Bft) W-SW 1,00 h 106 W/m² 8,5 °C 9,1 °C 1,1 km/h (0 Bft)
27.10.2023 12:00 21,3 °C 9,4 °C 60 % 95 % 993,9 hPa 0,0 l/m² 0,0 km/h (0 Bft) W-SW 1,00 h 76 W/m² 8,6 °C 9,4 °C 0,0 km/h (0 Bft)
27.10.2023 13:00 21,3 °C 9,8 °C 60 % 94 % 993,6 hPa 0,0 l/m² 0,0 km/h (0 Bft) W-SW 1,00 h 122 W/m² 8,8 °C 9,8 °C 0,1 km/h (0 Bft)
27.10.2023 14:00 21,3 °C 10,6 °C 60 % 91 % 993,7 hPa 0,0 l/m² 0,3 km/h (0 Bft) W-SW 1,00 h 161 W/m² 9,2 °C 10,6 °C 0,9 km/h (0 Bft)
27.10.2023 15:00 21,3 °C 10,8 °C 60 % 90 % 993,8 hPa 0,0 l/m² 0,9 km/h (0 Bft) W-SW 0,73 h 73 W/m² 9,3 °C 10,8 °C 1,6 km/h (1 Bft)
27.10.2023 16:00 21,3 °C 10,7 °C 59 % 91 % 994,2 hPa 0,2 l/m² 2,4 km/h (1 Bft) S-SO 0,00 h 25 W/m² 9,4 °C 10,7 °C 4,0 km/h (1 Bft)
27.10.2023 17:00 21,3 °C 10,4 °C 59 % 93 % 994,5 hPa 1,2 l/m² 0,9 km/h (0 Bft) S-SO 0,00 h 8 W/m² 9,4 °C 10,4 °C 1,8 km/h (1 Bft)
27.10.2023 18:00 21,2 °C 10,2 °C 59 % 95 % 994,7 hPa 0,8 l/m² 0,5 km/h (0 Bft) S-SO 0,00 h 0 W/m² 9,4 °C 10,2 °C 1,4 km/h (1 Bft)
27.10.2023 19:00 21,1 °C 10,2 °C 60 % 95 % 995,1 hPa 1,2 l/m² 1,5 km/h (1 Bft) S-SO 0,00 h 0 W/m² 9,4 °C 10,2 °C 3,4 km/h (1 Bft)
27.10.2023 20:00 21,3 °C 10,2 °C 61 % 95 % 995,2 hPa 0,4 l/m² 1,4 km/h (1 Bft) S 0,00 h 0 W/m² 9,4 °C 10,2 °C 3,1 km/h (1 Bft)
27.10.2023 21:00 21,3 °C 10,2 °C 61 % 95 % 995,5 hPa 0,8 l/m² 1,2 km/h (1 Bft) S 0,00 h 0 W/m² 9,4 °C 10,2 °C 3,1 km/h (1 Bft)
27.10.2023 22:00 21,1 °C 10,3 °C 61 % 95 % 995,6 hPa 0,0 l/m² 5,1 km/h (1 Bft) S-SW 0,00 h 0 W/m² 9,6 °C 10,3 °C 7,3 km/h (2 Bft)
27.10.2023 23:00 21,1 °C 10,1 °C 61 % 95 % 995,9 hPa 0,0 l/m² 6,3 km/h (2 Bft) S 0,00 h 0 W/m² 9,3 °C 9,4 °C 9,0 km/h (2 Bft)
28.10.2023 00:00 21,1 °C 10,3 °C 62 % 95 % 996,2 hPa 0,0 l/m² 4,3 km/h (1 Bft) S 0,00 h 0 W/m² 9,5 °C 10,2 °C 6,7 km/h (2 Bft)
28.10.2023 01:00 21,1 °C 10,4 °C 62 % 94 % 996,6 hPa 0,0 l/m² 6,8 km/h (2 Bft) SW 0,00 h 0 W/m² 9,4 °C 9,5 °C 9,4 km/h (2 Bft)
28.10.2023 02:00 21,1 °C 10,6 °C 62 % 93 % 996,7 hPa 0,0 l/m² 13,5 km/h (3 Bft) SW 0,00 h 0 W/m² 9,4 °C 6,7 °C 18,3 km/h (3 Bft)
28.10.2023 03:00 21,0 °C 9,6 °C 62 % 92 % 996,8 hPa 0,0 l/m² 15,3 km/h (3 Bft) S-SW 0,00 h 0 W/m² 8,3 °C 4,5 °C 20,8 km/h (4 Bft)
28.10.2023 04:00 20,9 °C 8,8 °C 62 % 92 % 997,2 hPa 0,0 l/m² 8,4 km/h (2 Bft) SW 0,00 h 0 W/m² 7,6 °C 7,1 °C 12,1 km/h (2 Bft)
28.10.2023 05:00 20,9 °C 8,4 °C 62 % 93 % 997,4 hPa 0,0 l/m² 3,8 km/h (1 Bft) S 0,00 h 0 W/m² 7,4 °C 7,9 °C 6,9 km/h (2 Bft)
28.10.2023 06:00 21,0 °C 7,8 °C 62 % 94 % 998,1 hPa 0,0 l/m² 0,0 km/h (0 Bft) N-NW 0,00 h 0 W/m² 6,9 °C 7,8 °C 0,0 km/h (0 Bft)
28.10.2023 07:00 20,9 °C 8,0 °C 62 % 95 % 998,4 hPa 0,4 l/m² 0,0 km/h (0 Bft) N-NW 0,00 h 0 W/m² 7,3 °C 8,0 °C 0,1 km/h (0 Bft)
28.10.2023 08:00 21,0 °C 8,7 °C 63 % 95 % 998,8 hPa 1,0 l/m² 0,1 km/h (0 Bft) S-SW 0,00 h 12 W/m² 8,0 °C 8,7 °C 0,4 km/h (0 Bft)
28.10.2023 09:00 21,2 °C 9,4 °C 64 % 96 % 999,5 hPa 0,4 l/m² 0,2 km/h (0 Bft) O-NO 0,00 h 26 W/m² 8,8 °C 9,4 °C 0,4 km/h (0 Bft)
28.10.2023 10:00 21,2 °C 10,6 °C 63 % 96 % 1000,1 hPa 0,6 l/m² 4,1 km/h (1 Bft) S 0,87 h 88 W/m² 10,0 °C 10,2 °C 6,7 km/h (2 Bft)
28.10.2023 11:00 21,3 °C 11,9 °C 63 % 93 % 1000,6 hPa 0,0 l/m² 9,2 km/h (2 Bft) S-SW 1,00 h 194 W/m² 10,9 °C 10,0 °C 13,1 km/h (3 Bft)
28.10.2023 12:00 21,8 °C 13,0 °C 67 % 86 % 1000,9 hPa 0,0 l/m² 13,5 km/h (3 Bft) SW 1,00 h 170 W/m² 10,8 °C 9,5 °C 18,9 km/h (3 Bft)
28.10.2023 13:00 21,7 °C 13,2 °C 65 % 86 % 1000,9 hPa 0,0 l/m² 11,5 km/h (2 Bft) SW 1,00 h 209 W/m² 10,8 °C 10,6 °C 15,3 km/h (3 Bft)
28.10.2023 14:00 21,6 °C 13,5 °C 64 % 84 % 1000,9 hPa 0,0 l/m² 8,0 km/h (2 Bft) SW 0,88 h 160 W/m² 10,9 °C 12,1 °C 11,3 km/h (2 Bft)
28.10.2023 15:00 21,4 °C 13,1 °C 63 % 85 % 1000,9 hPa 0,0 l/m² 11,1 km/h (2 Bft) SW 0,85 h 85 W/m² 10,7 °C 10,6 °C 15,0 km/h (3 Bft)
28.10.2023 16:00 21,4 °C 13,2 °C 64 % 83 % 1001,1 hPa 0,0 l/m² 11,9 km/h (2 Bft) S-SW 0,58 h 77 W/m² 10,5 °C 10,5 °C 15,5 km/h (3 Bft)
28.10.2023 17:00 21,3 °C 12,4 °C 62 % 87 % 1001,2 hPa 0,0 l/m² 5,9 km/h (2 Bft) S 0,00 h 19 W/m² 10,2 °C 12,2 °C 7,9 km/h (2 Bft)
28.10.2023 18:00 21,2 °C 12,0 °C 63 % 87 % 1001,5 hPa 0,0 l/m² 8,8 km/h (2 Bft) S 0,00 h 0 W/m² 9,9 °C 10,5 °C 11,4 km/h (2 Bft)
28.10.2023 19:00 21,2 °C 11,9 °C 64 % 87 % 1001,9 hPa 0,0 l/m² 8,5 km/h (2 Bft) S 0,00 h 0 W/m² 9,7 °C 10,4 °C 11,7 km/h (2 Bft)
28.10.2023 20:00 21,3 °C 11,4 °C 65 % 89 % 1002,3 hPa 0,0 l/m² 4,1 km/h (1 Bft) S 0,00 h 0 W/m² 9,6 °C 11,1 °C 6,3 km/h (2 Bft)
28.10.2023 21:00 21,5 °C 10,6 °C 66 % 89 % 1002,4 hPa 0,0 l/m² 4,4 km/h (1 Bft) S-SO 0,00 h 0 W/m² 8,8 °C 10,4 °C 7,1 km/h (2 Bft)
28.10.2023 22:00 21,5 °C 10,2 °C 65 % 89 % 1002,7 hPa 0,0 l/m² 6,6 km/h (2 Bft) S 0,00 h 0 W/m² 8,5 °C 9,7 °C 9,6 km/h (2 Bft)
28.10.2023 23:00 21,3 °C 10,5 °C 65 % 89 % 1002,5 hPa 0,0 l/m² 3,8 km/h (1 Bft) S-SO 0,00 h 0 W/m² 8,7 °C 10,5 °C 6,7 km/h (2 Bft)
29.10.2023 00:00 21,2 °C 10,8 °C 65 % 89 % 1002,4 hPa 0,0 l/m² 5,4 km/h (2 Bft) S-SO 0,00 h 0 W/m² 9,0 °C 10,6 °C 8,5 km/h (2 Bft)
29.10.2023 01:00 21,1 °C 11,0 °C 65 % 89 % 1002,1 hPa 0,0 l/m² 4,7 km/h (1 Bft) O-SO 0,00 h 0 W/m² 9,2 °C 10,9 °C 8,1 km/h (2 Bft)
29.10.2023 02:00 21,1 °C 10,7 °C 65 % 91 % 1001,5 hPa 0,4 l/m² 3,0 km/h (1 Bft) O-SO 0,00 h 0 W/m² 9,3 °C 10,7 °C 5,2 km/h (1 Bft)
29.10.2023 03:00 21,1 °C 11,0 °C 65 % 92 % 1000,8 hPa 0,4 l/m² 3,3 km/h (1 Bft) SO 0,00 h 0 W/m² 9,7 °C 11,0 °C 5,6 km/h (2 Bft)
29.10.2023 04:00 21,1 °C 11,0 °C 65 % 92 % 1000,6 hPa 0,0 l/m² 3,9 km/h (1 Bft) SO 0,00 h 0 W/m² 9,7 °C 11,0 °C 6,5 km/h (2 Bft)
29.10.2023 05:00 21,1 °C 11,5 °C 65 % 90 % 999,8 hPa 0,0 l/m² 8,2 km/h (2 Bft) SO 0,00 h 0 W/m² 9,9 °C 10,2 °C 12,7 km/h (3 Bft)
29.10.2023 06:00 21,0 °C 11,6 °C 65 % 88 % 999,1 hPa 0,0 l/m² 4,4 km/h (1 Bft) S-SO 0,00 h 0 W/m² 9,7 °C 11,6 °C 7,6 km/h (2 Bft)
29.10.2023 07:00 20,9 °C 11,7 °C 64 % 87 % 999,0 hPa 0,2 l/m² 7,7 km/h (2 Bft) SO 0,00 h 15 W/m² 9,7 °C 10,5 °C 11,8 km/h (2 Bft)
29.10.2023 08:00 21,0 °C 12,7 °C 64 % 82 % 999,3 hPa 0,0 l/m² 14,5 km/h (3 Bft) S-SO 0,53 h 72 W/m² 9,8 °C 8,7 °C 21,9 km/h (4 Bft)
29.10.2023 09:00 21,1 °C 13,8 °C 64 % 78 % 999,3 hPa 0,0 l/m² 17,5 km/h (3 Bft) S-SO 1,00 h 100 W/m² 10,0 °C 9,0 °C 24,6 km/h (4 Bft)
29.10.2023 10:00 21,1 °C 14,0 °C 63 % 79 % 999,4 hPa 0,0 l/m² 15,0 km/h (3 Bft) S 1,00 h 113 W/m² 10,5 °C 10,1 °C 22,1 km/h (4 Bft)
29.10.2023 11:00 21,2 °C 14,7 °C 63 % 80 % 999,6 hPa 0,0 l/m² 14,5 km/h (3 Bft) S 1,00 h 166 W/m² 11,3 °C 11,1 °C 21,3 km/h (4 Bft)
29.10.2023 12:00 21,2 °C 15,2 °C 63 % 79 % 999,8 hPa 0,0 l/m² 19,0 km/h (3 Bft) S 1,00 h 173 W/m² 11,6 °C 10,3 °C 26,3 km/h (4 Bft)
29.10.2023 13:00 21,1 °C 15,1 °C 63 % 80 % 999,5 hPa 0,0 l/m² 19,5 km/h (3 Bft) S 0,95 h 95 W/m² 11,7 °C 10,0 °C 27,9 km/h (5 Bft)
29.10.2023 14:00 21,1 °C 14,9 °C 62 % 81 % 999,4 hPa 0,0 l/m² 16,6 km/h (3 Bft) S-SW 0,20 h 43 W/m² 11,8 °C 10,8 °C 22,3 km/h (4 Bft)
29.10.2023 15:00 21,1 °C 14,4 °C 63 % 84 % 999,2 hPa 0,2 l/m² 18,5 km/h (3 Bft) S 0,63 h 57 W/m² 11,8 °C 9,5 °C 25,2 km/h (4 Bft)
29.10.2023 16:00 21,3 °C 14,0 °C 64 % 86 % 999,3 hPa 0,0 l/m² 12,3 km/h (2 Bft) S-SW 0,02 h 19 W/m² 11,7 °C 11,1 °C 15,6 km/h (3 Bft)
29.10.2023 17:00 21,4 °C 13,7 °C 64 % 86 % 998,9 hPa 0,0 l/m² 12,8 km/h (3 Bft) S 0,00 h 0 W/m² 11,4 °C 10,5 °C 17,5 km/h (3 Bft)
29.10.2023 18:00 21,3 °C 13,7 °C 62 % 87 % 1000,2 hPa 0,8 l/m² 11,9 km/h (2 Bft) S-SW 0,00 h 0 W/m² 11,6 °C 11,0 °C 15,6 km/h (3 Bft)
29.10.2023 19:00 21,3 °C 13,3 °C 62 % 89 % 1001,1 hPa 0,4 l/m² 17,8 km/h (3 Bft) S-SW 0,00 h 0 W/m² 11,4 °C 8,3 °C 23,5 km/h (4 Bft)
29.10.2023 20:00 21,3 °C 13,1 °C 63 % 87 % 1000,1 hPa 0,0 l/m² 24,0 km/h (4 Bft) S 0,00 h 0 W/m² 11,0 °C 6,4 °C 33,4 km/h (5 Bft)
29.10.2023 21:00 21,4 °C 13,0 °C 64 % 86 % 1000,3 hPa 0,0 l/m² 18,2 km/h (3 Bft) S 0,00 h 0 W/m² 10,7 °C 7,8 °C 25,9 km/h (4 Bft)
29.10.2023 22:00 21,3 °C 13,0 °C 64 % 84 % 1001,1 hPa 0,0 l/m² 16,0 km/h (3 Bft) S-SW 0,00 h 0 W/m² 10,4 °C 8,5 °C 21,5 km/h (4 Bft)
29.10.2023 23:00 21,2 °C 12,5 °C 64 % 85 % 1001,9 hPa 0,0 l/m² 7,6 km/h (2 Bft) S-SW 0,00 h 0 W/m² 9,9 °C 11,4 °C 11,8 km/h (2 Bft)
Min-Datum _ 23.10.23 27.10.23 23.10.23 23.10.23 26.10.23 - 29.10.23 - - - 27.10.23 28.10.23 29.10.23
_ Min-Zeit 05:00 03:07 15:03 15:25 04:06 - 03:52 - - - 03:07 03:53 03:52
Minimum _ 20,8 °C 4,2 °C 54 % 75 % 992,3 hPa - 0,0 km/h (0 Bft) - - - 3,5 °C 3,1 °C 0,0 km/h (0 Bft)
Max-Datum _ 23.10.23 23.10.23 28.10.23 27.10.23 23.10.23 24.10.23 29.10.23 - 29.10.23 25.10.23 24.10.23 23.10.23 29.10.23
_ Max-Zeit 12:25 13:18 12:09 10:07 10:37 17:04 20:44 - 15:46 13:51 15:09 13:18 20:07
Maximum _ 22,5 °C 16,6 °C 68 % 97 % 1015,7 hPa 2,6 l/m² 30,5 km/h
S (5 Bft)
- 0,05 h 594 W/m² 13,1 °C 16,6 °C 43,5 km/h
S (6 Bft)
Durchschnitt _ 21,4 °C 11,1 °C 61 % 91 % 1001,1 hPa #22,2 l/m² 5,0 km/h (1 Bft) O #44:49 h 52 W/m² 9,6 °C 10,1 °C 7,3 km/h (2 Bft)
© 2009 Mathias Hoßbach